Flight Track Log - Related Links

Times and Time Zones

All times are in EDT time to prevent confusion due to time zone crossing. See the EJA929 flight status page for this flight to view local times or setup timezone preferences in your user account.


Time Position Orientation Groundspeed Altitude Reporting Facility
EDT Latitude Longitude Course Direction KTS MPH feet Rate Location/Type
Sun 02:04:11 PM 29.6331 -95.2631 83° East 150 173 900  Level Houston Center
Sun 02:04:36 PM 29.6353 -95.2411 83° East 203 234 2,100 3,279 Climbing Houston Center
Sun 02:05:37 PM 29.7019 -95.2378 North 265 305 5,600 3,411 Climbing Houston Center
Sun 02:06:11 PM 29.7428 -95.2506 345° North 263 303 7,500 3,581 Climbing Houston Center
Sun 02:06:39 PM 29.7800 -95.2619 345° North 291 335 9,300 3,581 Climbing Houston Center
Sun 02:07:13 PM 29.8228 -95.2742 346° North 290 334 11,200 3,709 Climbing Houston Center
Sun 02:07:34 PM 29.8575 -95.2839 346° North 312 359 12,700 3,429 Climbing Houston Center
Sun 02:08:16 PM 29.9106 -95.2992 346° North 318 366 14,800 1,904 Climbing Houston Center
Sun 02:09:18 PM 30.0086 -95.2706 14° North 371 427 16,000 1,016 Climbing Houston Center
Sun 02:10:20 PM 30.1192 -95.2336 16° North 408 470 16,900 1,306 Climbing Houston Center
Sun 02:11:22 PM 30.2275 -95.1969 16° North 406 467 18,700 1,935 Climbing Houston Center
Sun 02:12:24 PM 30.3572 -95.1536 16° North 404 465 20,900 1,839 Climbing Houston Center
Sun 02:13:26 PM 30.4539 -95.1203 17° North 401 461 22,500 1,774 Climbing Houston Center
Sun 02:15:30 PM 30.6867 -95.0139 21° North 414 476 26,400 1,871 Climbing Houston Center
Sun 02:16:32 PM 30.7900 -94.9492 28° Northeast 421 484 28,300 1,776 Climbing Houston Center
Sun 02:17:35 PM 30.8944 -94.8842 28° Northeast 427 491 30,100 1,765 Climbing Houston Center
Sun 02:17:57 PM 30.9411 -94.8558 28° Northeast 423 487 30,800 1,404 Climbing Fort Worth Center
Sun 02:19:09 PM 31.0461 -94.7875 29° Northeast 423 487 32,300 1,545 Climbing Fort Worth Center
Sun 02:20:09 PM 31.1822 -94.7011 28° Northeast 436 502 34,200 1,700 Climbing Fort Worth Center
Sun 02:21:09 PM 31.2953 -94.6250 30° Northeast 456 525 35,700 1,400 Climbing Fort Worth Center
Sun 02:22:09 PM 31.4022 -94.5511 31° Northeast 476 548 37,000 1,400 Climbing Fort Worth Center
Sun 02:23:09 PM 31.5131 -94.4697 32° Northeast 481 554 38,500 1,000 Climbing Fort Worth Center
Sun 02:24:09 PM 31.6172 -94.3739 38° Northeast 481 554 39,000 250 Climbing Fort Worth Center
Sun 02:25:09 PM 31.7253 -94.2700 39° Northeast 487 560 39,000 200 Level Fort Worth Center
Sun 02:26:09 PM 31.8375 -94.1636 39° Northeast 504 580 39,400 700 Climbing Fort Worth Center
Sun 02:27:09 PM 31.9475 -94.0569 39° Northeast 510 587 40,400 800 Climbing Fort Worth Center
Sun 02:28:09 PM 32.0553 -93.9547 39° Northeast 510 587 41,000 300 Climbing Fort Worth Center
Sun 02:29:09 PM 32.1650 -93.8500 39° Northeast 510 587 41,000  Level Fort Worth Center
Sun 02:30:09 PM 32.2847 -93.7300 40° Northeast 510 587 41,000  Level Fort Worth Center
Sun 02:31:09 PM 32.3922 -93.6247 40° Northeast 510 587 41,000  Level Fort Worth Center
Sun 02:32:09 PM 32.5058 -93.5139 39° Northeast 510 587 41,000  Level Fort Worth Center
Sun 02:33:09 PM 32.6153 -93.4081 39° Northeast 510 587 41,000  Level Fort Worth Center
Sun 02:34:09 PM 32.7244 -93.3019 39° Northeast 510 587 41,000  Level Fort Worth Center
Sun 02:35:09 PM 32.8356 -93.1931 39° Northeast 510 587 41,000  Level Fort Worth Center
Sun 02:36:09 PM 32.9469 -93.0864 39° Northeast 510 587 41,000  Level Fort Worth Center
Sun 02:37:09 PM 33.0578 -92.9794 39° Northeast 510 587 41,000  Level Fort Worth Center
Sun 02:38:09 PM 33.1667 -92.8697 40° Northeast 515 593 41,000  Level Fort Worth Center
Sun 02:39:57 PM 33.3664 -92.6756 39° Northeast 515 593 41,000  Level Memphis Center
Sun 02:40:57 PM 33.4769 -92.5664 39° Northeast 515 593 41,000  Level Memphis Center
Sun 02:41:57 PM 33.5875 -92.4544 40° Northeast 515 593 41,000  Level Memphis Center
Sun 02:42:57 PM 33.7000 -92.3422 40° Northeast 510 587 41,000  Level Memphis Center
Sun 02:43:57 PM 33.8144 -92.2297 39° Northeast 510 587 41,000  Level Memphis Center
Sun 02:44:57 PM 33.9244 -92.1169 40° Northeast 510 587 41,000  Level Memphis Center
Sun 02:45:57 PM 34.0389 -92.0039 39° Northeast 515 593 41,000  Level Memphis Center
Sun 02:46:57 PM 34.1447 -91.8881 42° Northeast 515 593 41,000  Level Memphis Center
Sun 02:47:57 PM 34.2567 -91.7719 41° Northeast 521 600 41,000  Level Memphis Center
Sun 02:49:00 PM 34.3582 -91.6644 41° Northeast  Level FlightAware Approximate
Sun 02:49:57 PM 34.4675 -91.5564 41° Northeast 516 594 41,000  Level Memphis Center
Sun 02:50:57 PM 34.5792 -91.4419 40° Northeast 516 594 41,000  Level Memphis Center
Sun 02:51:57 PM 34.6906 -91.3269 40° Northeast 516 594 41,000  Level Memphis Center
Sun 02:52:57 PM 34.8125 -91.1994 41° Northeast 521 600 41,000  Level Memphis Center
Sun 02:53:57 PM 34.9239 -91.0839 40° Northeast 521 600 41,000  Level Memphis Center
Sun 02:54:57 PM 35.0350 -90.9708 40° Northeast 521 600 41,000  Level Memphis Center
Sun 02:55:57 PM 35.1442 -90.8572 40° Northeast 515 593 41,000  Level Memphis Center
Sun 02:56:57 PM 35.2531 -90.7436 40° Northeast 515 593 41,000  Level Memphis Center
Sun 02:57:57 PM 35.3617 -90.6269 41° Northeast 515 593 41,000  Level Memphis Center
Sun 02:58:57 PM 35.4703 -90.5100 41° Northeast 515 593 41,000  Level Memphis Center
Sun 02:59:57 PM 35.5664 -90.4081 41° Northeast 515 593 41,000  Level Memphis Center
Sun 03:00:57 PM 35.6747 -90.2906 41° Northeast 515 593 41,000  Level Memphis Center
Sun 03:01:57 PM 35.7853 -90.1675 42° Northeast 492 566 41,000  Level Memphis Center
Sun 03:02:57 PM 35.8914 -90.0522 41° Northeast 497 572 41,000  Level Memphis Center
Sun 03:03:57 PM 35.9972 -89.9336 42° Northeast 503 579 41,000  Level Memphis Center
Sun 03:04:57 PM 36.1053 -89.8200 40° Northeast 503 579 41,000  Level Memphis Center
Sun 03:05:57 PM 36.2131 -89.7036 41° Northeast 503 579 41,000  Level Memphis Center
Sun 03:06:57 PM 36.3189 -89.5894 41° Northeast 503 579 41,000  Level Memphis Center
Sun 03:07:57 PM 36.4286 -89.4697 41° Northeast 508 585 41,000  Level Memphis Center
Sun 03:08:57 PM 36.5400 -89.3497 41° Northeast 521 600 41,000  Level Memphis Center
Sun 03:09:57 PM 36.6475 -89.2267 43° Northeast 521 600 41,000  Level Memphis Center
Sun 03:10:57 PM 36.7403 -89.1219 42° Northeast 515 593 41,000  Level Memphis Center
Sun 03:11:57 PM 36.8472 -89.0036 42° Northeast 515 593 41,000  Level Memphis Center
Sun 03:12:57 PM 36.9544 -88.8850 41° Northeast 515 593 41,000  Level Memphis Center
Sun 03:13:57 PM 37.0592 -88.7661 42° Northeast 515 593 41,000  Level Memphis Center
Sun 03:14:57 PM 37.1658 -88.6494 41° Northeast 515 593 41,000  Level Memphis Center
Sun 03:15:57 PM 37.2706 -88.5272 43° Northeast 510 587 41,000  Level Memphis Center
Sun 03:16:57 PM 37.3792 -88.4072 41° Northeast 510 587 41,000  Level Memphis Center
Sun 03:18:08 PM 37.5128 -88.2428 44° Northeast 522 601 41,000  Level Indianapolis Center
Sun 03:19:10 PM 37.6128 -88.1264 43° Northeast 521 600 41,000  Level Indianapolis Center
Sun 03:20:12 PM 37.7058 -87.9847 50° Northeast 527 606 41,000  Level Indianapolis Center
Sun 03:21:14 PM 37.7381 -87.8072 77° East 519 597 41,000  Level Indianapolis Center
Sun 03:22:16 PM 37.7597 -87.6256 81° East 517 595 41,000  Level Indianapolis Center
Sun 03:23:18 PM 37.7867 -87.4133 81° East 519 597 41,000  Level Indianapolis Center
Sun 03:24:20 PM 37.8097 -87.2233 81° East 522 601 41,000  Level Indianapolis Center
Sun 03:25:22 PM 37.8314 -87.0425 81° East 525 604 41,000  Level Indianapolis Center
Sun 03:26:24 PM 37.8531 -86.8628 81° East 522 601 41,000  Level Indianapolis Center
Sun 03:27:26 PM 37.8750 -86.6836 81° East 519 597 41,000  Level Indianapolis Center
Sun 03:28:28 PM 37.8958 -86.5033 82° East 520 598 41,000  Level Indianapolis Center
Sun 03:29:30 PM 37.9169 -86.3225 82° East 519 597 41,000  Level Indianapolis Center
Sun 03:30:32 PM 37.9417 -86.1058 82° East 519 597 41,000  Level Indianapolis Center
Sun 03:31:34 PM 37.9617 -85.9256 82° East 519 597 41,000  Level Indianapolis Center
Sun 03:32:37 PM 37.9814 -85.7422 82° East 523 602 41,000  Level Indianapolis Center
Sun 03:33:39 PM 38.0019 -85.5589 82° East 525 604 41,000  Level Indianapolis Center
Sun 03:34:41 PM 38.0228 -85.3756 82° East 526 605 41,000  Level Indianapolis Center
Sun 03:35:43 PM 38.0436 -85.1714 83° East 520 598 41,000  Level Indianapolis Center
Sun 03:36:45 PM 38.0625 -84.9881 82° East 522 601 41,000  Level Indianapolis Center
Sun 03:37:47 PM 38.0803 -84.8058 83° East 521 600 41,000  Level Indianapolis Center
Sun 03:38:49 PM 38.0981 -84.6239 83° East 519 597 41,000  Level Indianapolis Center
Sun 03:39:51 PM 38.1214 -84.4100 82° East 522 601 41,000  Level Indianapolis Center
Sun 03:40:53 PM 38.1394 -84.2281 83° East 520 598 41,000  Level Indianapolis Center
Sun 03:41:55 PM 38.1567 -84.0461 83° East 518 596 41,000  Level Indianapolis Center
Sun 03:42:57 PM 38.1753 -83.8667 82° East 513 590 41,000  Level Indianapolis Center
Sun 03:43:59 PM 38.1894 -83.6889 84° East 507 583 41,000  Level Indianapolis Center
Sun 03:45:01 PM 38.2064 -83.5100 83° East 508 585 41,000  Level Indianapolis Center
Sun 03:46:03 PM 38.2242 -83.3022 84° East 505 581 41,000  Level Indianapolis Center
Sun 03:47:05 PM 38.2400 -83.1228 84° East 507 583 41,000  Level Indianapolis Center
Sun 03:48:07 PM 38.2631 -82.9456 81° East 507 583 41,000  Level Indianapolis Center
Sun 03:49:09 PM 38.2856 -82.7675 81° East 507 583 41,000  Level Indianapolis Center
Sun 03:50:11 PM 38.2936 -82.5864 87° East 509 586 41,000  Level Indianapolis Center
Sun 03:51:14 PM 38.2972 -82.4011 89° East 512 589 41,000  Level Indianapolis Center
Sun 03:52:16 PM 38.3089 -82.2225 85° East 510 587 41,000 -48 Level Indianapolis Center
Sun 03:53:18 PM 38.3203 -82.0469 85° East 502 578 40,900 -871 Descending Indianapolis Center
Sun 03:54:20 PM 38.3342 -81.8361 85° East 503 579 39,200 -1,548 Descending Indianapolis Center
Sun 03:55:22 PM 38.3425 -81.6600 86° East 504 580 37,700 -1,065 Descending Indianapolis Center
Sun 03:56:24 PM 38.3483 -81.4833 88° East 505 581 37,000 -339 Descending Indianapolis Center
Sun 03:57:26 PM 38.3492 -81.3014 90° East 518 596 37,000  Level Indianapolis Center
Sun 03:58:28 PM 38.3358 -81.0828 94° East 521 600 37,000  Level Indianapolis Center
Sun 03:59:19 PM 38.3253 -80.9383 95° East 516 594 37,000  Level Washington Center
Sun 04:00:20 PM 38.3122 -80.7575 95° East 516 594 37,000  Level Washington Center
Sun 04:01:21 PM 38.3089 -80.5931 91° East 522 601 37,000  Level Washington Center
Sun 04:02:19 PM 38.3122 -80.4106 89° East 522 601 37,000 -303 Level Washington Center
Sun 04:03:20 PM 38.3442 -80.2353 77° East 513 590 36,400 -1,574 Descending Washington Center
Sun 04:04:21 PM 38.3778 -80.0600 76° East 513 590 33,800 -6,149 Descending Washington Center
Sun 04:05:21 PM 38.4244 -79.8719 72° East 508 585 24,000 -2,898 Descending Washington Center
Sun 04:06:19 PM 38.4636 -79.7072 73° East 497 572 28,100 807 Climbing Washington Center
Sun 04:07:20 PM 38.5003 -79.5394 74° East 486 559 25,600 -2,016 Descending Washington Center
Sun 04:08:21 PM 38.5344 -79.3897 74° East 469 540 24,000 -807 Descending Washington Center
Sun 04:09:19 PM 38.5550 -79.2661 78° East 419 482 24,000 -655 Level Washington Center
Sun 04:10:20 PM 38.5781 -79.1239 78° East 408 470 22,700 -1,672 Descending Washington Center
Sun 04:11:21 PM 38.6008 -78.9842 78° East 408 470 20,600 -2,100 Descending Washington Center
Sun 04:12:20 PM 38.6233 -78.8497 78° East 396 456 18,500 -2,050 Descending Washington Center
Sun 04:13:21 PM 38.6517 -78.7233 74° East 382 440 16,500 -1,884 Descending Washington Center
Sun 04:14:21 PM 38.6797 -78.6022 73° East 365 420 14,700 -1,866 Descending Washington Center
Sun 04:15:20 PM 38.7056 -78.4833 74° East 352 405 12,800 -1,831 Descending Washington Center
Sun 04:16:19 PM 38.7331 -78.3753 72° East 333 383 11,100 -1,400 Descending Washington Center
Sun 04:17:20 PM 38.7892 -78.2975 47° Northeast 299 344 10,000 -942 Descending Washington Center
Sun 04:18:20 PM 38.8450 -78.2197 47° Northeast 299 344 9,200 -1,041 Descending Washington Center
Sun 04:19:21 PM 38.8764 -78.1222 68° East 288 331 7,900 -1,190 Descending Washington Center
Sun 04:20:21 PM 38.8992 -78.0269 73° East 283 326 6,800 -966 Descending Washington Center
Sun 04:21:19 PM 38.9219 -77.9342 72° East 272 313 6,000 -407 Descending Washington Center
Sun 04:22:19 PM 38.9489 -77.8311 71° East 266 306 6,000  Level Washington Center
Sun 04:23:20 PM 38.9611 -77.7300 81° East 278 320 6,000  Level Washington Center
Sun 04:24:58 PM 39.0000 -77.5833 71° East 269 310 6,000  Level Potomac TRACON
Sun 04:25:58 PM 39.0500 -77.5667 15° North 235 270 6,000 -550 Level Potomac TRACON
Sun 04:26:58 PM 39.1167 -77.5500 11° North 233 268 4,900 -1,350 Descending Potomac TRACON
Sun 04:27:58 PM 39.1167 -77.4833 90° East 203 234 3,300 -1,400 Descending Potomac TRACON
Sun 04:28:58 PM 39.0833 -77.4333 131° Southeast 179 206 2,100 -750 Descending Potomac TRACON
Sun 04:29:58 PM 39.0333 -77.4333 180° South 169 194 1,800 -550 Descending Potomac TRACON
Sun 04:30:58 PM 38.9833 -77.4333 180° South 141 162 1,000 -800 Descending Potomac TRACON
Sun 04:32:00 PM 38.9474 -77.4599 165° South  Level Estimated
Sun 04:39:00 PM 38.9474 -77.4599 165° South  Level Estimated
Sun 04:40:00 PM 38.9474 -77.4599 165° South  Level Estimated

Login

Don't have an account? Register now (free) for customized features, flight alerts, and more!